Time;durP1;ratioP1;P1;durP2;ratioP2;P2;SDS_P1;SDS_P2;PMS_P1;PMS_P2;Temp;Humidity;BMP_temperature;BMP_pressure;BME280_temperature;BME280_humidity;BME280_pressure;Samples;Min_cycle;Max_cycle;Signal;HPM_P1;HPM_P2
2022/04/07 00:00:13;;;;;;;0.77;0.40;;;11.60;1.00;;;;;;5092901;28;20563;-70
2022/04/07 00:02:43;;;;;;;2.00;1.53;;;11.50;1.00;;;;;;5092361;28;20445;-72
2022/04/07 00:05:11;;;;;;;1.07;0.30;;;11.50;1.00;;;;;;5092503;28;20436;-72
2022/04/07 00:07:38;;;;;;;0.60;0.10;;;11.50;1.00;;;;;;5094766;28;20467;-72
2022/04/07 00:10:07;;;;;;;1.07;0.80;;;11.50;1.00;;;;;;5094973;28;20456;-71
2022/04/07 00:12:37;;;;;;;0.80;0.30;;;11.50;1.00;;;;;;5093698;28;20450;-71
2022/04/07 00:15:05;;;;;;;0.60;0.10;;;11.40;1.00;;;;;;5092387;28;20521;-71
2022/04/07 00:17:33;;;;;;;0.60;0.20;;;11.40;1.00;;;;;;5092041;28;20548;-72
2022/04/07 00:20:02;;;;;;;0.60;0.30;;;11.40;1.00;;;;;;5091454;28;20437;-70
2022/04/07 00:22:30;;;;;;;0.60;0.20;;;11.40;1.00;;;;;;5091475;28;20446;-70
2022/04/07 00:24:58;;;;;;;0.60;0.20;;;11.40;1.00;;;;;;5092612;28;20459;-71
2022/04/07 00:27:26;;;;;;;0.60;0.10;;;11.30;1.00;;;;;;5111209;28;20478;-69
2022/04/07 00:29:54;;;;;;;0.70;0.57;;;11.30;1.00;;;;;;5112069;28;20523;-71
2022/04/07 00:32:22;;;;;;;0.60;0.20;;;11.30;1.00;;;;;;5112064;28;20957;-71
2022/04/07 00:34:54;;;;;;;0.60;0.10;;;11.30;1.00;;;;;;5112562;28;20436;-70
2022/04/07 00:37:24;;;;;;;0.60;0.23;;;11.30;1.00;;;;;;5112460;28;20447;-71
2022/04/07 00:39:52;;;;;;;0.60;0.10;;;11.30;1.00;;;;;;5111843;28;20534;-71
2022/04/07 00:42:20;;;;;;;0.60;0.10;;;11.30;1.00;;;;;;5111615;28;20958;-71
2022/04/07 00:44:48;;;;;;;0.60;0.10;;;;;;;;;;5096031;28;21021;-71
2022/04/07 00:47:16;;;;;;;0.60;0.20;;;11.20;1.00;;;;;;5090571;28;20456;-69
2022/04/07 00:49:44;;;;;;;7.13;1.40;;;11.20;1.00;;;;;;5091319;28;20543;-70
2022/04/07 00:52:13;;;;;;;2.13;0.87;;;11.10;1.00;;;;;;5090780;28;20436;-70
2022/04/07 00:54:43;;;;;;;0.60;0.30;;;11.10;1.00;;;;;;5104355;28;20534;-71
2022/04/07 00:57:11;;;;;;;1.13;0.80;;;11.10;1.00;;;;;;5111528;28;20593;-71
2022/04/07 00:59:40;;;;;;;0.67;0.33;;;;;;;;;;5109394;28;20462;-71
2022/04/07 01:02:09;;;;;;;0.60;0.20;;;11.10;1.00;;;;;;5110743;28;20454;-71
2022/04/07 01:04:38;;;;;;;1.37;1.07;;;11.00;1.00;;;;;;5095977;28;20440;-71
2022/04/07 01:07:08;;;;;;;2.80;0.57;;;11.00;1.00;;;;;;5091929;28;20451;-71
2022/04/07 01:09:36;;;;;;;0.60;0.10;;;11.00;1.00;;;;;;5111123;28;20552;-71
2022/04/07 01:12:06;;;;;;;0.60;0.10;;;11.10;1.00;;;;;;5111506;28;20443;-71
2022/04/07 01:14:34;;;;;;;3.73;1.23;;;11.00;1.00;;;;;;5109776;28;20535;-73
2022/04/07 01:17:02;;;;;;;0.60;0.10;;;11.00;1.00;;;;;;5112315;28;20475;-72
2022/04/07 01:19:30;;;;;;;0.60;0.20;;;11.00;1.00;;;;;;5115219;28;20471;-71
2022/04/07 01:21:57;;;;;;;0.60;0.20;;;11.00;1.00;;;;;;5115356;28;20439;-71
2022/04/07 01:24:32;;;;;;;0.60;0.30;;;10.70;1.00;;;;;;5103395;28;20455;-71
2022/04/07 01:27:00;;;;;;;0.60;0.20;;;11.10;1.00;;;;;;5113711;28;20445;-70
2022/04/07 01:29:28;;;;;;;0.60;0.17;;;11.10;1.00;;;;;;5117168;28;20439;-70
2022/04/07 01:31:56;;;;;;;0.60;0.10;;;11.10;1.00;;;;;;5117198;28;20483;-69
2022/04/07 01:34:24;;;;;;;0.60;0.10;;;11.10;1.00;;;;;;5116153;28;20526;-69
2022/04/07 01:36:53;;;;;;;0.60;0.10;;;11.20;1.00;;;;;;5115632;28;20913;-71
2022/04/07 01:39:26;;;;;;;0.60;0.10;;;11.10;1.00;;;;;;5115303;28;20448;-71
2022/04/07 01:41:56;;;;;;;0.60;0.10;;;11.20;1.00;;;;;;5100429;28;20559;-69
2022/04/07 01:44:25;;;;;;;0.60;0.10;;;11.20;1.00;;;;;;5094596;28;20523;-70
2022/04/07 01:46:54;;;;;;;0.60;0.10;;;11.20;1.00;;;;;;5094893;28;20798;-72
2022/04/07 01:49:24;;;;;;;0.60;0.10;;;11.20;1.00;;;;;;5095527;28;20440;-69
2022/04/07 01:51:52;;;;;;;0.60;0.10;;;;;;;;;;5095883;28;20972;-71
2022/04/07 01:54:20;;;;;;;0.60;0.20;;;11.20;1.00;;;;;;5095570;28;20443;-71
2022/04/07 01:56:48;;;;;;;0.60;0.10;;;;;;;;;;5093091;28;20480;-72
2022/04/07 01:59:19;;;;;;;2.30;2.10;;;11.20;1.00;;;;;;5093939;28;20550;-71
2022/04/07 02:01:47;;;;;;;0.60;0.10;;;11.20;1.00;;;;;;5107337;28;20493;-68
2022/04/07 02:04:15;;;;;;;0.60;0.10;;;11.20;1.00;;;;;;5114560;28;20485;-69
2022/04/07 02:06:43;;;;;;;0.60;0.10;;;11.20;1.00;;;;;;5114388;28;20447;-71
2022/04/07 02:09:11;;;;;;;1.23;1.13;;;11.10;1.00;;;;;;5114614;28;20480;-71
2022/04/07 02:11:41;;;;;;;0.60;0.10;;;;;;;;;;5115251;28;20630;-71
2022/04/07 02:14:09;;;;;;;0.60;0.20;;;11.10;1.00;;;;;;5116340;28;20533;-71
2022/04/07 02:16:38;;;;;;;0.60;0.10;;;11.10;1.00;;;;;;5114335;28;20479;-72
2022/04/07 02:19:06;;;;;;;0.60;0.10;;;11.10;1.00;;;;;;5114160;28;20469;-73
2022/04/07 02:21:35;;;;;;;0.60;0.10;;;11.10;1.00;;;;;;5102351;28;20445;-71
2022/04/07 02:24:05;;;;;;;1.20;0.40;;;11.00;1.00;;;;;;5093849;28;20957;-71
2022/04/07 02:26:33;;;;;;;0.60;0.10;;;11.00;1.00;;;;;;5107963;28;20470;-71
2022/04/07 02:29:01;;;;;;;0.60;0.10;;;10.90;1.00;;;;;;5113988;28;20546;-71
2022/04/07 02:31:29;;;;;;;1.40;0.50;;;10.90;1.00;;;;;;5113677;28;20534;-71
2022/04/07 02:33:58;;;;;;;1.40;1.00;;;10.90;1.00;;;;;;5113873;28;20950;-71
2022/04/07 02:36:26;;;;;;;0.90;0.20;;;10.90;1.00;;;;;;5113613;28;20475;-71
2022/04/07 02:38:54;;;;;;;0.60;0.10;;;10.90;1.00;;;;;;5113470;28;20901;-71
2022/04/07 02:41:24;;;;;;;0.60;0.50;;;10.90;1.00;;;;;;5105027;28;20819;-70
2022/04/07 02:43:52;;;;;;;0.60;0.10;;;10.80;1.00;;;;;;5092940;28;20961;-72
2022/04/07 02:46:19;;;;;;;0.70;0.40;;;10.80;1.00;;;;;;5092784;28;20445;-70
2022/04/07 02:48:48;;;;;;;0.60;0.30;;;;;;;;;;5092790;28;20460;-70
2022/04/07 02:51:17;;;;;;;0.60;0.10;;;10.70;1.00;;;;;;5100200;28;20452;-70
2022/04/07 02:53:45;;;;;;;0.60;0.10;;;10.60;1.00;;;;;;5113582;28;20443;-70
2022/04/07 02:56:13;;;;;;;5.27;1.80;;;10.60;1.00;;;;;;5113479;28;20448;-70
2022/04/07 02:58:40;;;;;;;0.87;0.40;;;10.60;1.00;;;;;;5111450;28;20444;-68
2022/04/07 03:01:14;;;;;;;0.60;0.30;;;10.60;1.00;;;;;;5093145;28;20651;-69
2022/04/07 03:03:42;;;;;;;0.60;0.20;;;10.60;1.00;;;;;;5093002;28;20990;-71
2022/04/07 03:06:10;;;;;;;0.70;0.40;;;10.50;1.00;;;;;;5093834;28;20959;-71
2022/04/07 03:08:39;;;;;;;0.60;0.10;;;10.60;1.00;;;;;;5094790;28;20502;-69
2022/04/07 03:11:08;;;;;;;0.60;0.10;;;10.50;1.00;;;;;;5113080;28;20934;-71
2022/04/07 03:13:37;;;;;;;0.60;0.17;;;10.50;1.00;;;;;;5113046;28;20435;-70
2022/04/07 03:16:08;;;;;;;0.60;0.20;;;10.50;1.00;;;;;;5113169;28;20436;-70
2022/04/07 03:18:37;;;;;;;1.00;0.47;;;10.40;1.00;;;;;;5113732;28;20547;-69
2022/04/07 03:21:05;;;;;;;1.03;0.87;;;10.40;1.00;;;;;;5093946;28;20440;-69
2022/04/07 03:23:33;;;;;;;0.60;0.20;;;10.40;1.00;;;;;;5094087;28;20473;-70
2022/04/07 03:26:03;;;;;;;0.60;0.20;;;10.40;1.00;;;;;;5110124;28;20447;-68
2022/04/07 03:28:30;;;;;;;0.60;0.20;;;10.40;1.00;;;;;;5112555;28;20546;-70
2022/04/07 03:30:58;;;;;;;0.70;0.30;;;10.40;1.00;;;;;;5113230;28;20447;-70
2022/04/07 03:33:26;;;;;;;3.23;0.87;;;10.50;1.00;;;;;;5104835;27;20543;-75
2022/04/07 03:35:54;;;;;;;2.30;1.13;;;10.80;1.00;;;;;;5093398;28;21092;-69
2022/04/07 03:38:22;;;;;;;0.60;0.20;;;10.50;1.00;;;;;;5091904;28;20495;-68
2022/04/07 03:40:50;;;;;;;0.87;0.63;;;10.50;1.00;;;;;;5092707;28;21066;-72
2022/04/07 03:43:20;;;;;;;0.80;0.67;;;10.50;1.00;;;;;;5092909;28;20440;-69
2022/04/07 03:45:47;;;;;;;0.90;0.70;;;10.50;1.00;;;;;;5092193;28;20451;-69
2022/04/07 03:48:16;;;;;;;0.60;0.10;;;10.60;1.00;;;;;;5094490;28;20460;-70
2022/04/07 03:50:44;;;;;;;0.60;0.10;;;10.60;1.00;;;;;;5111534;28;20460;-70
2022/04/07 03:53:11;;;;;;;0.60;0.20;;;10.60;1.00;;;;;;5113351;28;20542;-71
2022/04/07 03:55:39;;;;;;;0.60;0.10;;;10.60;1.00;;;;;;5108804;28;20883;-70
2022/04/07 03:58:07;;;;;;;0.60;0.10;;;10.60;1.00;;;;;;5112331;28;20490;-72
2022/04/07 04:00:36;;;;;;;0.60;0.10;;;10.60;1.00;;;;;;5112327;28;20440;-73
2022/04/07 04:03:04;;;;;;;0.50;0.10;;;10.70;1.00;;;;;;5113752;28;20440;-72
2022/04/07 04:05:32;;;;;;;0.60;0.10;;;10.70;1.00;;;;;;5112698;28;20443;-72
2022/04/07 04:08:00;;;;;;;0.60;0.10;;;10.70;1.00;;;;;;5112134;28;20969;-71
2022/04/07 04:10:28;;;;;;;0.60;0.20;;;10.70;1.00;;;;;;5112339;28;20456;-70
2022/04/07 04:12:56;;;;;;;0.60;0.10;;;10.70;1.00;;;;;;5109458;28;20542;-71
2022/04/07 04:15:24;;;;;;;0.90;0.40;;;10.80;1.00;;;;;;5113205;28;20946;-71
2022/04/07 04:17:54;;;;;;;0.60;0.10;;;10.80;1.00;;;;;;5112800;28;20482;-71
2022/04/07 04:20:22;;;;;;;0.60;0.20;;;10.80;1.00;;;;;;5112087;28;20448;-71
2022/04/07 04:22:50;;;;;;;0.60;0.50;;;10.80;1.00;;;;;;5112275;28;20522;-71
2022/04/07 04:25:18;;;;;;;1.20;0.73;;;10.80;1.00;;;;;;5113042;28;20829;-72
2022/04/07 04:27:46;;;;;;;0.60;0.10;;;10.80;1.00;;;;;;5097677;28;20482;-71
2022/04/07 04:30:15;;;;;;;0.60;0.10;;;10.80;1.00;;;;;;5093258;28;20468;-71
2022/04/07 04:32:43;;;;;;;3.03;0.67;;;10.80;1.00;;;;;;5109114;28;20942;-72
2022/04/07 04:35:13;;;;;;;0.60;0.10;;;10.80;1.00;;;;;;5110832;28;20491;-71
2022/04/07 04:37:41;;;;;;;0.50;0.10;;;;;;;;;;5105531;28;20476;-72
2022/04/07 04:40:10;;;;;;;0.60;0.30;;;10.80;1.00;;;;;;5110856;28;20849;-72
2022/04/07 04:42:40;;;;;;;0.60;0.10;;;10.80;1.00;;;;;;5108191;28;20953;-69
2022/04/07 04:45:08;;;;;;;0.60;0.10;;;10.80;1.00;;;;;;5112406;28;20849;-70
2022/04/07 04:47:36;;;;;;;0.60;0.20;;;10.80;1.00;;;;;;5111753;28;20521;-69
2022/04/07 04:50:05;;;;;;;0.60;0.20;;;10.80;1.00;;;;;;5107633;28;20484;-71
2022/04/07 04:52:34;;;;;;;0.60;0.20;;;10.80;1.00;;;;;;5111483;28;20457;-71
2022/04/07 04:55:02;;;;;;;1.60;0.90;;;10.80;1.00;;;;;;5117050;28;20451;-71
2022/04/07 04:57:30;;;;;;;0.60;0.10;;;10.90;1.00;;;;;;5113340;28;20475;-71
2022/04/07 04:59:58;;;;;;;0.60;0.20;;;10.90;1.00;;;;;;5113710;28;20440;-71
2022/04/07 05:02:26;;;;;;;0.63;0.20;;;10.90;1.00;;;;;;5117725;28;20997;-71
2022/04/07 05:04:54;;;;;;;0.60;0.10;;;;;;;;;;5116464;28;20451;-71
2022/04/07 05:07:22;;;;;;;0.60;0.10;;;10.90;1.00;;;;;;5115931;28;20460;-71
2022/04/07 05:09:57;;;;;;;0.60;0.10;;;10.90;1.00;;;;;;5120153;28;20454;-72
2022/04/07 05:12:26;;;;;;;0.80;0.20;;;10.70;1.00;;;;;;5123286;28;20526;-72
2022/04/07 05:14:54;;;;;;;0.60;0.30;;;10.70;1.00;;;;;;5120492;28;20822;-72
2022/04/07 05:17:23;;;;;;;0.60;0.20;;;;;;;;;;5117642;28;20459;-72
2022/04/07 05:20:01;;;;;;;0.80;0.33;;;10.70;1.00;;;;;;5119195;28;20470;-72
2022/04/07 05:22:31;;;;;;;0.60;0.10;;;;;;;;;;5117815;28;20442;-71
2022/04/07 05:25:00;;;;;;;0.57;0.10;;;10.70;1.00;;;;;;5117522;28;20459;-72
2022/04/07 05:27:28;;;;;;;0.60;0.10;;;10.70;1.00;;;;;;5119430;28;20546;-71
2022/04/07 05:29:56;;;;;;;0.60;0.10;;;10.70;1.00;;;;;;5119109;28;20448;-71
2022/04/07 05:32:24;;;;;;;0.80;0.53;;;10.70;1.00;;;;;;5112565;28;20497;-72
2022/04/07 05:34:52;;;;;;;0.60;0.10;;;10.70;1.00;;;;;;5116982;28;20451;-71
2022/04/07 05:37:20;;;;;;;0.60;0.10;;;10.70;1.00;;;;;;5115845;28;20466;-72
2022/04/07 05:39:48;;;;;;;1.00;0.30;;;10.70;1.00;;;;;;5127805;27;20482;-72
2022/04/07 05:42:18;;;;;;;0.60;0.10;;;10.70;1.00;;;;;;5119010;27;20540;-72
2022/04/07 05:44:46;;;;;;;0.60;0.30;;;10.70;1.00;;;;;;5130029;27;20453;-72
2022/04/07 05:47:14;;;;;;;0.60;0.10;;;;;;;;;;5120547;27;20475;-72
2022/04/07 05:49:42;;;;;;;0.60;0.10;;;10.80;1.00;;;;;;5116825;28;20451;-72
2022/04/07 05:52:10;;;;;;;0.60;0.10;;;10.90;1.00;;;;;;5116276;28;20429;-71
2022/04/07 05:54:38;;;;;;;0.80;0.60;;;10.90;1.00;;;;;;5118251;28;20454;-71
2022/04/07 05:57:07;;;;;;;0.60;0.10;;;11.00;1.00;;;;;;5127840;28;20483;-71
2022/04/07 05:59:36;;;;;;;0.60;0.10;;;11.00;1.00;;;;;;5126229;28;20534;-71
2022/04/07 06:02:05;;;;;;;0.60;0.20;;;11.10;1.00;;;;;;5113916;28;20455;-72
2022/04/07 06:04:33;;;;;;;0.60;0.10;;;11.10;1.00;;;;;;5118125;28;21336;-72
2022/04/07 06:07:01;;;;;;;0.60;0.37;;;11.20;1.00;;;;;;5114510;27;20458;-72
2022/04/07 06:09:29;;;;;;;1.10;0.77;;;11.20;1.00;;;;;;5109077;27;20463;-72
2022/04/07 06:11:57;;;;;;;0.60;0.20;;;11.20;1.00;;;;;;5117462;27;20457;-72
2022/04/07 06:14:25;;;;;;;0.80;0.47;;;11.10;1.00;;;;;;5114866;27;20444;-74
2022/04/07 06:16:54;;;;;;;0.60;0.20;;;11.20;1.00;;;;;;5109600;27;20454;-72
2022/04/07 06:19:22;;;;;;;0.60;0.10;;;11.20;1.00;;;;;;5117011;28;20472;-72
2022/04/07 06:21:50;;;;;;;0.60;0.10;;;11.20;1.00;;;;;;5116166;28;20983;-72
2022/04/07 06:24:18;;;;;;;0.60;0.10;;;11.20;1.00;;;;;;5114469;28;20452;-71
2022/04/07 06:26:47;;;;;;;0.60;0.10;;;11.10;1.00;;;;;;5105413;28;20479;-70
2022/04/07 06:29:15;;;;;;;0.60;0.10;;;11.00;1.00;;;;;;5115331;28;20495;-73
2022/04/07 06:31:44;;;;;;;0.60;0.10;;;11.20;1.00;;;;;;5114835;28;20550;-72
2022/04/07 06:34:22;;;;;;;0.60;0.10;;;11.10;1.00;;;;;;5110652;28;20467;-72
2022/04/07 06:36:51;;;;;;;0.77;0.37;;;;;;;;;;5101372;28;20451;-73
2022/04/07 06:39:18;;;;;;;0.60;0.17;;;11.10;1.00;;;;;;5114235;28;20482;-72
2022/04/07 06:41:46;;;;;;;0.60;0.10;;;11.10;1.00;;;;;;5114106;28;20805;-74
2022/04/07 06:44:15;;;;;;;0.60;0.10;;;11.10;1.00;;;;;;5114589;28;20443;-71
2022/04/07 06:46:43;;;;;;;0.60;0.10;;;11.10;1.00;;;;;;5114249;28;20448;-71
2022/04/07 06:49:11;;;;;;;0.80;0.73;;;11.10;1.00;;;;;;5114283;28;20555;-72
2022/04/07 06:51:40;;;;;;;0.60;0.10;;;11.20;1.00;;;;;;5114209;28;20432;-74
2022/04/07 06:54:08;;;;;;;0.53;0.20;;;11.20;1.00;;;;;;5114690;28;20446;-72
2022/04/07 06:56:39;;;;;;;0.90;0.33;;;11.30;1.00;;;;;;5096744;28;20449;-72
2022/04/07 06:59:07;;;;;;;0.90;0.40;;;11.20;1.00;;;;;;5095948;28;20971;-71
2022/04/07 07:01:35;;;;;;;0.60;0.20;;;11.20;1.00;;;;;;5108125;28;20451;-73
2022/04/07 07:04:05;;;;;;;0.60;0.30;;;11.20;1.00;;;;;;5094261;28;20448;-72
2022/04/07 07:06:32;;;;;;;0.60;0.10;;;11.20;1.00;;;;;;5110693;28;20442;-73
2022/04/07 07:09:02;;;;;;;0.90;0.30;;;11.10;1.00;;;;;;5113662;28;20467;-72
2022/04/07 07:11:30;;;;;;;0.60;0.10;;;11.10;1.00;;;;;;5112742;28;20763;-74
2022/04/07 07:13:57;;;;;;;6.97;6.43;;;11.10;1.00;;;;;;5115603;28;20443;-72
2022/04/07 07:16:26;;;;;;;0.60;0.10;;;11.00;1.00;;;;;;5097504;28;20456;-73
2022/04/07 07:18:54;;;;;;;0.60;0.10;;;11.00;1.00;;;;;;5093357;28;20875;-73
2022/04/07 07:21:22;;;;;;;0.60;0.23;;;11.00;1.00;;;;;;5093265;28;20436;-73
2022/04/07 07:23:50;;;;;;;0.60;0.10;;;11.00;1.00;;;;;;5094065;28;20493;-73
2022/04/07 07:26:19;;;;;;;0.60;0.10;;;11.00;1.00;;;;;;5106431;28;20450;-72
2022/04/07 07:28:47;;;;;;;0.77;0.60;;;11.00;1.00;;;;;;5114009;28;20566;-73
2022/04/07 07:31:15;;;;;;;0.60;0.10;;;11.00;1.00;;;;;;5114132;28;20466;-72
2022/04/07 07:33:43;;;;;;;0.60;0.20;;;11.00;1.00;;;;;;5113901;28;21037;-72
2022/04/07 07:36:11;;;;;;;0.60;0.30;;;11.10;1.00;;;;;;5099508;28;20444;-72
2022/04/07 07:38:39;;;;;;;0.80;0.57;;;11.10;1.00;;;;;;5093407;28;21053;-73
2022/04/07 07:41:06;;;;;;;0.60;0.10;;;11.10;1.00;;;;;;5092480;28;20550;-73
2022/04/07 07:43:36;;;;;;;0.60;0.10;;;11.20;1.00;;;;;;5104587;28;20443;-73
2022/04/07 07:46:04;;;;;;;0.60;0.20;;;11.20;1.00;;;;;;5112558;28;20496;-70
2022/04/07 07:48:32;;;;;;;0.70;0.23;;;;;;;;;;5111649;28;20602;-73
2022/04/07 07:51:01;;;;;;;0.60;0.10;;;11.20;1.00;;;;;;5112124;27;20542;-72
2022/04/07 07:53:29;;;;;;;0.60;0.10;;;11.20;1.00;;;;;;5108378;28;20452;-71
2022/04/07 07:55:57;;;;;;;0.60;0.20;;;11.10;1.00;;;;;;5115299;28;20447;-70
2022/04/07 07:58:25;;;;;;;0.60;0.10;;;11.10;1.00;;;;;;5110349;28;20480;-73
2022/04/07 08:00:56;;;;;;;0.60;0.10;;;11.10;1.00;;;;;;5107895;28;20483;-72
2022/04/07 08:03:24;;;;;;;0.53;0.10;;;11.10;1.00;;;;;;5114566;28;20550;-72
2022/04/07 08:05:52;;;;;;;0.60;0.10;;;11.10;1.00;;;;;;5101037;28;20460;-72
2022/04/07 08:08:19;;;;;;;0.60;0.10;;;11.00;1.00;;;;;;5118586;27;20871;-73
2022/04/07 08:10:47;;;;;;;0.60;0.10;;;11.00;1.00;;;;;;5122053;27;20457;-71
2022/04/07 08:13:15;;;;;;;0.60;0.20;;;11.00;1.00;;;;;;5104937;27;20469;-72
2022/04/07 08:15:43;;;;;;;0.60;0.10;;;11.00;1.00;;;;;;5106311;28;20829;-73
2022/04/07 08:18:13;;;;;;;0.60;0.10;;;11.00;1.00;;;;;;5111717;28;20477;-74
2022/04/07 08:20:41;;;;;;;8.70;0.57;;;10.90;1.00;;;;;;5102518;28;20851;-74
2022/04/07 08:23:09;;;;;;;0.60;0.10;;;11.00;1.00;;;;;;5092420;28;20453;-73
2022/04/07 08:25:37;;;;;;;0.60;0.10;;;11.00;1.00;;;;;;5106947;28;20523;-74
2022/04/07 08:28:05;;;;;;;0.60;0.10;;;11.00;1.00;;;;;;5116549;28;20470;-73
2022/04/07 08:30:34;;;;;;;0.70;0.20;;;11.00;1.00;;;;;;5116127;28;20537;-75
2022/04/07 08:33:03;;;;;;;0.60;0.10;;;11.00;1.00;;;;;;5115688;28;20451;-67
2022/04/07 08:35:32;;;;;;;0.60;0.20;;;11.10;1.00;;;;;;5118747;28;20463;-73
2022/04/07 08:38:01;;;;;;;2.00;1.07;;;11.10;1.00;;;;;;5112585;28;20661;-72
2022/04/07 08:40:29;;;;;;;0.60;0.10;;;11.10;1.00;;;;;;5108224;28;20467;-74
2022/04/07 08:42:57;;;;;;;0.60;0.10;;;11.10;1.00;;;;;;5099479;28;20439;-74
2022/04/07 08:45:26;;;;;;;0.60;0.20;;;11.10;1.00;;;;;;5098580;28;20472;-74
2022/04/07 08:47:58;;;;;;;0.90;0.20;;;11.20;1.00;;;;;;5114268;28;20795;-73
2022/04/07 08:50:27;;;;;;;0.60;0.10;;;11.20;1.00;;;;;;5116374;28;20431;-73
2022/04/07 08:52:57;;;;;;;0.60;0.10;;;11.20;1.00;;;;;;5115206;28;20539;-73
2022/04/07 08:55:25;;;;;;;0.53;0.20;;;11.20;1.00;;;;;;5116350;28;20956;-72
2022/04/07 08:57:53;;;;;;;0.60;0.10;;;11.30;1.00;;;;;;5110643;28;20604;-74
2022/04/07 09:00:22;;;;;;;0.60;0.20;;;11.30;1.00;;;;;;5111570;28;20484;-73
2022/04/07 09:02:49;;;;;;;0.60;0.10;;;11.30;1.00;;;;;;5108312;28;20455;-73
2022/04/07 09:05:23;;;;;;;0.60;0.20;;;11.30;1.00;;;;;;5115937;28;20843;-75
2022/04/07 09:07:52;;;;;;;0.60;0.17;;;11.30;1.00;;;;;;5115769;28;20455;-74
2022/04/07 09:10:23;;;;;;;0.60;0.10;;;11.30;1.00;;;;;;5115861;28;20455;-71
2022/04/07 09:12:52;;;;;;;0.60;0.20;;;11.30;1.00;;;;;;5110979;28;20451;-75
2022/04/07 09:15:22;;;;;;;0.60;0.10;;;11.30;1.00;;;;;;5114328;28;20459;-72
2022/04/07 09:17:52;;;;;;;0.60;0.10;;;11.30;1.00;;;;;;5111194;28;21124;-74
2022/04/07 09:20:20;;;;;;;0.60;0.10;;;11.30;1.00;;;;;;5113170;28;20487;-69
2022/04/07 09:22:56;;;;;;;0.60;0.20;;;11.40;1.00;;;;;;5110953;28;20447;-73
2022/04/07 09:25:26;;;;;;;1.70;0.20;;;11.40;1.00;;;;;;5116470;28;20514;-74
2022/04/07 09:27:57;;;;;;;0.60;0.20;;;11.40;1.00;;;;;;5116827;28;20463;-70
2022/04/07 09:30:26;;;;;;;0.70;0.30;;;11.40;1.00;;;;;;5114088;28;20797;-71
2022/04/07 09:32:54;;;;;;;1.03;0.30;;;11.50;1.00;;;;;;5107787;28;20536;-71
2022/04/07 09:35:24;;;;;;;0.60;0.10;;;11.50;1.00;;;;;;5115337;28;20962;-72
2022/04/07 09:37:52;;;;;;;1.70;0.60;;;11.50;1.00;;;;;;5115001;28;20459;-72
2022/04/07 09:40:20;;;;;;;0.60;0.20;;;11.50;1.00;;;;;;5116821;28;20553;-71
2022/04/07 09:43:02;;;;;;;0.60;0.20;;;;;;;;;;5115469;28;20914;-72
2022/04/07 09:45:31;;;;;;;0.60;0.10;;;11.70;1.00;;;;;;5117889;28;20511;-67
2022/04/07 09:48:24;;;;;;;0.60;0.10;;;11.70;1.00;;;;;;5119813;28;20448;-73
2022/04/07 09:51:05;;;;;;;0.60;0.10;;;11.70;1.00;;;;;;5122143;28;20436;-71
2022/04/07 09:53:38;;;;;;;0.60;0.20;;;11.70;1.00;;;;;;5106833;28;20463;-72
2022/04/07 09:56:07;;;;;;;0.60;0.10;;;11.80;1.00;;;;;;5115772;28;20473;-72
2022/04/07 09:58:37;;;;;;;0.60;0.10;;;11.80;1.00;;;;;;5115944;28;20451;-69
2022/04/07 10:01:05;;;;;;;0.60;0.10;;;11.80;1.00;;;;;;5102855;28;20595;-69
2022/04/07 10:03:35;;;;;;;0.60;0.10;;;;;;;;;;5116249;28;20447;-70
2022/04/07 10:06:03;;;;;;;0.60;0.20;;;11.90;1.00;;;;;;5115444;28;20440;-71
2022/04/07 10:08:33;;;;;;;0.60;0.10;;;11.90;1.00;;;;;;5115315;28;20463;-72
2022/04/07 10:11:03;;;;;;;0.60;0.10;;;11.90;1.00;;;;;;5115099;28;20440;-73
2022/04/07 10:13:33;;;;;;;0.60;0.20;;;11.90;1.00;;;;;;5113709;28;20444;-72
2022/04/07 10:16:03;;;;;;;0.60;0.10;;;11.90;1.00;;;;;;5113970;28;20486;-72
2022/04/07 10:18:36;;;;;;;1.20;0.97;;;11.90;1.00;;;;;;5110755;28;20524;-72
2022/04/07 10:21:05;;;;;;;0.60;0.20;;;11.90;1.00;;;;;;5110944;28;20469;-72
2022/04/07 10:23:48;;;;;;;0.80;0.20;;;11.80;1.00;;;;;;5114039;28;20501;-74
2022/04/07 10:26:18;;;;;;;0.60;0.10;;;11.90;1.00;;;;;;5114119;28;20464;-72
2022/04/07 10:28:55;;;;;;;0.80;0.47;;;11.90;1.00;;;;;;5113041;28;20455;-73
2022/04/07 10:31:25;;;;;;;0.60;0.10;;;11.90;1.00;;;;;;5114040;28;20444;-70
2022/04/07 10:34:06;;;;;;;0.60;0.20;;;11.90;1.00;;;;;;5115329;28;20462;-72
2022/04/07 10:36:39;;;;;;;0.60;0.10;;;11.90;1.00;;;;;;5106686;28;20463;-69
2022/04/07 10:39:12;;;;;;;0.60;0.10;;;11.90;1.00;;;;;;5097033;28;20456;-72
2022/04/07 10:41:47;;;;;;;0.60;0.37;;;12.00;1.00;;;;;;5095647;28;20479;-73
2022/04/07 10:44:17;;;;;;;0.60;0.10;;;12.00;1.00;;;;;;5104718;28;20444;-71
2022/04/07 10:46:46;;;;;;;0.60;0.10;;;12.00;1.00;;;;;;5117461;28;20447;-73
2022/04/07 10:49:23;;;;;;;0.60;0.10;;;12.00;1.00;;;;;;5117713;28;20482;-70
2022/04/07 10:51:53;;;;;;;0.60;0.10;;;12.00;1.00;;;;;;5102171;28;20787;-72
2022/04/07 10:54:21;;;;;;;0.60;0.10;;;12.00;1.00;;;;;;5101579;28;20437;-73
2022/04/07 10:56:56;;;;;;;0.60;0.10;;;12.10;1.00;;;;;;5102252;28;20962;-73
2022/04/07 10:59:27;;;;;;;0.60;0.10;;;12.10;1.00;;;;;;5099599;28;20539;-70
2022/04/07 11:02:02;;;;;;;0.60;0.10;;;12.10;1.00;;;;;;5098685;28;20473;-71
2022/04/07 11:05:03;;;;;;;0.87;0.30;;;12.10;1.00;;;;;;5097670;28;20449;-70
2022/04/07 11:07:37;;;;;;;0.60;0.10;;;12.10;1.00;;;;;;5097329;28;20488;-70
2022/04/07 11:10:16;;;;;;;0.60;0.10;;;12.10;1.00;;;;;;5098172;28;20514;-74
2022/04/07 11:13:00;;;;;;;0.60;0.10;;;12.20;1.00;;;;;;5097269;28;20441;-71
2022/04/07 11:15:43;;;;;;;0.60;0.10;;;12.20;1.00;;;;;;5112589;28;20814;-72
2022/04/07 11:18:33;;;;;;;0.60;0.10;;;12.30;1.00;;;;;;5129199;28;20460;-73
2022/04/07 11:21:03;;;;;;;0.60;0.10;;;12.30;1.00;;;;;;5127011;28;20462;-74
2022/04/07 11:23:51;;;;;;;0.60;0.10;;;12.30;1.00;;;;;;5110842;28;20471;-72
2022/04/07 11:26:21;;;;;;;0.60;0.10;;;12.30;1.00;;;;;;5124602;28;20505;-73
2022/04/07 11:29:06;;;;;;;0.60;0.10;;;12.30;1.00;;;;;;5131412;28;20455;-73
2022/04/07 11:31:41;;;;;;;0.60;0.10;;;12.40;1.00;;;;;;5123039;28;20511;-73
2022/04/07 11:34:42;;;;;;;0.60;0.20;;;12.40;1.00;;;;;;5127078;28;20450;-73
2022/04/07 11:37:12;;;;;;;0.60;0.10;;;12.50;1.00;;;;;;5119767;28;20444;-73
2022/04/07 11:39:41;;;;;;;0.60;0.20;;;12.50;1.00;;;;;;5116669;28;20785;-73
2022/04/07 11:42:16;;;;;;;0.90;0.30;;;12.60;1.00;;;;;;5112977;28;20472;-73
2022/04/07 11:44:45;;;;;;;0.60;0.20;;;12.60;1.00;;;;;;5111742;28;20505;-73
2022/04/07 11:47:23;;;;;;;0.83;0.73;;;12.70;1.00;;;;;;5114456;28;20479;-73
2022/04/07 11:49:52;;;;;;;0.60;0.10;;;12.70;1.00;;;;;;5114880;28;20457;-73
2022/04/07 11:52:29;;;;;;;0.60;0.10;;;12.10;1.00;;;;;;5116973;28;20871;-73
2022/04/07 11:54:58;;;;;;;0.60;0.10;;;12.80;1.00;;;;;;5113760;28;20478;-74
2022/04/07 11:57:28;;;;;;;0.60;0.10;;;12.90;1.00;;;;;;5116155;28;20455;-76
2022/04/07 11:59:59;;;;;;;0.60;0.10;;;12.90;1.00;;;;;;5115164;28;20444;-73
2022/04/07 12:02:28;;;;;;;0.80;0.60;;;13.00;1.00;;;;;;5116296;28;20471;-74
2022/04/07 12:05:01;;;;;;;0.60;0.10;;;13.00;1.00;;;;;;5111341;28;20461;-74
2022/04/07 12:07:31;;;;;;;0.60;0.10;;;13.10;1.00;;;;;;5105798;28;20470;-74
2022/04/07 12:10:06;;;;;;;0.60;0.20;;;13.20;1.00;;;;;;5115134;28;20467;-73
2022/04/07 12:12:42;;;;;;;0.60;0.10;;;13.00;1.00;;;;;;5114403;28;20440;-73
2022/04/07 12:15:11;;;;;;;0.60;0.10;;;13.20;1.00;;;;;;5111500;28;20440;-74
2022/04/07 12:17:59;;;;;;;0.60;0.20;;;13.30;1.00;;;;;;5107361;28;20465;-74
2022/04/07 12:20:28;;;;;;;0.60;0.20;;;13.30;1.00;;;;;;5113169;28;20493;-75
2022/04/07 12:23:08;;;;;;;0.60;0.10;;;13.40;1.00;;;;;;5115286;28;20548;-76
2022/04/07 12:25:37;;;;;;;0.60;0.17;;;13.60;1.00;;;;;;5128338;28;20516;-77
2022/04/07 12:28:09;;;;;;;0.60;0.10;;;13.70;1.00;;;;;;5122111;28;20461;-76
2022/04/07 12:30:46;;;;;;;0.60;0.20;;;13.80;1.00;;;;;;5117458;28;20445;-77
2022/04/07 12:33:39;;;;;;;0.60;0.10;;;14.70;1.00;;;;;;5115490;28;20424;-78
2022/04/07 12:36:07;;;;;;;0.60;0.30;;;14.00;1.00;;;;;;5112658;28;20460;-77
2022/04/07 12:38:37;;;;;;;1.37;0.30;;;14.00;1.00;;;;;;5115531;28;21072;-78
2022/04/07 12:41:13;;;;;;;0.60;0.10;;;14.20;1.00;;;;;;5112577;28;20535;-78
2022/04/07 12:43:50;;;;;;;0.60;0.10;;;14.20;1.00;;;;;;5112483;28;20542;-78
2022/04/07 12:46:18;;;;;;;0.60;0.20;;;14.20;1.00;;;;;;5094800;28;20460;-77
2022/04/07 12:49:06;;;;;;;0.80;0.50;;;14.30;1.00;;;;;;5094469;28;20463;-77
2022/04/07 12:51:35;;;;;;;0.60;0.20;;;14.30;1.00;;;;;;5095265;28;20454;-78
2022/04/07 12:54:15;;;;;;;0.60;0.10;;;14.40;1.00;;;;;;5098776;28;20468;-78
2022/04/07 12:56:46;;;;;;;0.60;0.20;;;14.40;1.00;;;;;;5115082;28;20445;-77
2022/04/07 12:59:15;;;;;;;0.60;0.10;;;14.40;1.00;;;;;;5108940;28;20873;-77
2022/04/07 13:01:49;;;;;;;0.60;0.10;;;14.40;1.00;;;;;;5094334;28;20491;-78
2022/04/07 13:04:17;;;;;;;0.60;0.10;;;14.40;1.00;;;;;;5101314;28;20452;-77
2022/04/07 13:06:45;;;;;;;0.60;0.10;;;14.30;1.00;;;;;;5115104;28;20559;-77
2022/04/07 13:09:16;;;;;;;0.90;0.20;;;14.20;1.00;;;;;;5114745;28;20870;-78
2022/04/07 13:11:44;;;;;;;2.40;0.53;;;14.10;1.00;;;;;;5116023;28;20469;-78
2022/04/07 13:14:13;;;;;;;1.27;0.57;;;14.10;1.00;;;;;;5114556;28;20440;-79
2022/04/07 13:16:44;;;;;;;0.60;0.10;;;;;;;;;;5098075;28;20486;-77